createdAt,value
2016-06-15T00:00:11.315Z,0
2016-06-15T00:01:11.194Z,0
2016-06-15T00:02:11.369Z,0
2016-06-15T00:03:11.403Z,0
2016-06-15T00:04:11.422Z,0
2016-06-15T00:05:12.394Z,0
2016-06-15T00:06:11.475Z,0
2016-06-15T00:07:11.493Z,0
2016-06-15T00:08:11.559Z,0
2016-06-15T00:09:11.546Z,0
2016-06-15T00:10:11.581Z,0
2016-06-15T00:11:11.599Z,0
2016-06-15T00:12:11.619Z,0
2016-06-15T00:13:11.496Z,0
2016-06-15T00:14:11.672Z,0
2016-06-15T00:15:11.721Z,0
2016-06-15T00:16:11.740Z,0
2016-06-15T00:17:11.759Z,0
2016-06-15T00:18:11.777Z,0
2016-06-15T00:19:11.812Z,0
2016-06-15T00:20:11.830Z,0
2016-06-15T00:21:11.850Z,0
2016-06-15T00:22:11.883Z,0
2016-06-15T00:23:11.918Z,0
2016-06-15T00:24:11.920Z,0
2016-06-15T00:25:11.799Z,0
2016-06-15T00:26:11.973Z,0
2016-06-15T00:27:12.024Z,0
2016-06-15T00:28:11.885Z,0
2016-06-15T00:29:12.061Z,0
2016-06-15T00:30:11.954Z,0
2016-06-15T00:31:12.114Z,0
2016-06-15T00:32:12.133Z,0
2016-06-15T00:33:12.167Z,0
2016-06-15T00:34:12.186Z,0
2016-06-15T00:35:12.501Z,0
2016-06-15T00:36:12.271Z,0
2016-06-15T00:37:12.257Z,0
2016-06-15T00:38:12.307Z,0
2016-06-15T00:39:12.327Z,0
2016-06-15T00:40:12.189Z,0
2016-06-15T00:41:12.207Z,0
2016-06-15T00:42:12.398Z,0
2016-06-15T00:43:12.417Z,0
2016-06-15T00:44:12.451Z,0
2016-06-15T00:45:12.485Z,0
2016-06-15T00:46:12.504Z,0
2016-06-15T00:47:12.538Z,0
2016-06-15T00:48:12.557Z,0
2016-06-15T00:49:12.575Z,0
2016-06-15T00:50:12.625Z,0
2016-06-15T00:51:12.645Z,0
2016-06-15T00:52:12.647Z,0
2016-06-15T00:53:12.682Z,0
2016-06-15T00:54:12.701Z,0
2016-06-15T00:55:12.735Z,0
2016-06-15T00:56:12.785Z,0
2016-06-15T00:57:12.647Z,0
2016-06-15T00:58:12.838Z,0
2016-06-15T00:59:12.892Z,0
2016-06-15T01:00:12.963Z,0
2016-06-15T01:01:13.034Z,0
2016-06-15T01:02:12.963Z,0
2016-06-15T01:03:13.125Z,0
2016-06-15T01:04:13.172Z,0
2016-06-15T01:05:13.251Z,0
2016-06-15T01:06:13.267Z,0
2016-06-15T01:07:13.283Z,0
2016-06-15T01:08:13.323Z,0
2016-06-15T01:09:13.348Z,0
2016-06-15T01:10:13.370Z,0
2016-06-15T01:11:13.410Z,0
2016-06-15T01:12:13.433Z,0
2016-06-15T01:13:13.470Z,0
2016-06-15T01:14:13.490Z,0
2016-06-15T01:15:13.370Z,0
2016-06-15T01:16:13.562Z,0
2016-06-15T01:17:13.566Z,0
2016-06-15T01:18:13.634Z,0
2016-06-15T01:19:13.637Z,0
2016-06-15T01:20:14.297Z,0
2016-06-15T01:21:13.692Z,0
2016-06-15T01:22:13.711Z,0
2016-06-15T01:23:13.730Z,0
2016-06-15T01:24:13.764Z,0
2016-06-15T01:25:13.783Z,0
2016-06-15T01:26:13.817Z,0
2016-06-15T01:27:13.837Z,0
2016-06-15T01:28:13.870Z,0
2016-06-15T01:29:13.890Z,0
2016-06-15T01:30:13.923Z,0
2016-06-15T01:31:13.943Z,0
2016-06-15T01:32:13.960Z,0
2016-06-15T01:33:13.995Z,0
2016-06-15T01:34:14.029Z,0
2016-06-15T01:35:14.455Z,0
2016-06-15T01:36:14.066Z,0
2016-06-15T01:37:14.101Z,0
2016-06-15T01:38:14.120Z,0
2016-06-15T01:39:14.154Z,0
2016-06-15T01:40:14.188Z,0
2016-06-15T01:41:14.223Z,0
2016-06-15T01:42:14.226Z,0
2016-06-15T01:43:14.104Z,0
2016-06-15T01:44:14.295Z,0
2016-06-15T01:45:14.313Z,0
2016-06-15T01:46:14.363Z,0
2016-06-15T01:47:14.194Z,0
2016-06-15T01:48:14.385Z,0
2016-06-15T01:49:14.419Z,0
2016-06-15T01:50:15.266Z,0
2016-06-15T01:51:14.300Z,0
2016-06-15T01:52:14.491Z,0
2016-06-15T01:53:14.510Z,0
2016-06-15T01:54:14.528Z,0
2016-06-15T01:55:14.578Z,0
2016-06-15T01:56:14.597Z,0
2016-06-15T01:57:14.647Z,0
2016-06-15T01:58:14.634Z,0
2016-06-15T01:59:14.669Z,0
2016-06-15T02:00:14.532Z,0
2016-06-15T02:01:14.722Z,0
2016-06-15T02:02:14.741Z,0
2016-06-15T02:03:14.759Z,0
2016-06-15T02:04:14.794Z,0
2016-06-15T02:05:15.031Z,0
2016-06-15T02:06:14.862Z,0
2016-06-15T02:07:14.709Z,0
2016-06-15T02:08:14.899Z,0
2016-06-15T02:09:14.918Z,0
2016-06-15T02:10:14.968Z,0
2016-06-15T02:11:14.972Z,0
2016-06-15T02:12:15.006Z,0
2016-06-15T02:13:15.025Z,0
2016-06-15T02:14:15.059Z,0
2016-06-15T02:15:14.921Z,0
2016-06-15T02:16:15.112Z,0
2016-06-15T02:17:15.130Z,0
2016-06-15T02:18:15.149Z,0
2016-06-15T02:19:15.183Z,0
2016-06-15T02:20:15.936Z,0
2016-06-15T02:21:15.424Z,0
2016-06-15T02:22:15.256Z,0
2016-06-15T02:23:15.289Z,0
2016-06-15T02:24:15.324Z,0
2016-06-15T02:25:15.342Z,0
2016-06-15T02:26:15.392Z,0
2016-06-15T02:27:15.395Z,0
2016-06-15T02:28:15.414Z,0
2016-06-15T02:29:15.432Z,0
2016-06-15T02:30:15.452Z,0
2016-06-15T02:31:15.485Z,0
2016-06-15T02:32:15.520Z,0
2016-06-15T02:33:15.539Z,0
2016-06-15T02:34:15.573Z,0
2016-06-15T02:35:16.092Z,0
2016-06-15T02:36:15.642Z,0
2016-06-15T02:37:15.645Z,0
2016-06-15T02:38:15.663Z,0
2016-06-15T02:39:15.697Z,0
2016-06-15T02:40:15.716Z,0
2016-06-15T02:41:15.751Z,0
2016-06-15T02:42:15.785Z,0
2016-06-15T02:43:15.820Z,0
2016-06-15T02:44:15.823Z,0
2016-06-15T02:45:15.857Z,0
2016-06-15T02:46:15.876Z,0
2016-06-15T02:47:15.894Z,0
2016-06-15T02:48:15.929Z,0
2016-06-15T02:49:15.978Z,0
2016-06-15T02:50:16.029Z,0
2016-06-15T02:51:16.203Z,0
2016-06-15T02:52:16.035Z,0
2016-06-15T02:53:16.053Z,0
2016-06-15T02:54:16.088Z,0
2016-06-15T02:55:16.107Z,0
2016-06-15T02:56:15.985Z,0
2016-06-15T02:57:16.159Z,0
2016-06-15T02:58:16.178Z,4
2016-06-15T02:59:16.243Z,4
2016-06-15T03:00:16.247Z,4
2016-06-15T03:01:16.281Z,0
2016-06-15T03:02:16.301Z,4
2016-06-15T03:03:16.318Z,4
2016-06-15T03:04:16.196Z,4
2016-06-15T03:05:16.371Z,4
2016-06-15T03:06:16.250Z,4
2016-06-15T03:07:16.425Z,8
2016-06-15T03:08:16.444Z,4
2016-06-15T03:09:16.462Z,4
2016-06-15T03:10:16.496Z,4
2016-06-15T03:11:16.515Z,8
2016-06-15T03:12:16.534Z,8
2016-06-15T03:13:16.568Z,8
2016-06-15T03:14:16.602Z,8
2016-06-15T03:15:16.621Z,8
2016-06-15T03:16:16.655Z,8
2016-06-15T03:17:16.675Z,8
2016-06-15T03:18:16.552Z,8
2016-06-15T03:19:16.727Z,8
2016-06-15T03:20:16.823Z,8
2016-06-15T03:21:17.233Z,8
2016-06-15T03:22:16.798Z,8
2016-06-15T03:23:16.833Z,12
2016-06-15T03:24:16.867Z,12
2016-06-15T03:25:16.886Z,8
2016-06-15T03:26:16.905Z,12
2016-06-15T03:27:16.939Z,12
2016-06-15T03:28:16.958Z,16
2016-06-15T03:29:16.976Z,12
2016-06-15T03:30:16.995Z,16
2016-06-15T03:31:17.045Z,20
2016-06-15T03:32:17.048Z,16
2016-06-15T03:33:16.926Z,20
2016-06-15T03:34:17.102Z,20
2016-06-15T03:35:17.135Z,24
2016-06-15T03:36:17.327Z,24
2016-06-15T03:37:17.189Z,28
2016-06-15T03:38:17.239Z,32
2016-06-15T03:39:17.257Z,36
2016-06-15T03:40:17.260Z,36
2016-06-15T03:41:17.123Z,40
2016-06-15T03:42:17.329Z,44
2016-06-15T03:43:17.332Z,44
2016-06-15T03:44:17.366Z,52
2016-06-15T03:45:17.386Z,48
2016-06-15T03:46:17.419Z,52
2016-06-15T03:47:17.439Z,52
2016-06-15T03:48:17.456Z,56
2016-06-15T03:49:17.538Z,60
2016-06-15T03:50:17.525Z,64
2016-06-15T03:51:17.998Z,68
2016-06-15T03:52:17.578Z,72
2016-06-15T03:53:17.597Z,80
2016-06-15T03:54:17.615Z,88
2016-06-15T03:55:17.650Z,92
2016-06-15T03:56:17.669Z,96
2016-06-15T03:57:17.719Z,100
2016-06-15T03:58:17.723Z,108
2016-06-15T03:59:17.740Z,108
2016-06-15T04:00:17.775Z,112
2016-06-15T04:01:17.857Z,112
2016-06-15T04:02:17.843Z,108
2016-06-15T04:03:17.863Z,108
2016-06-15T04:04:17.896Z,108
2016-06-15T04:05:17.744Z,112
2016-06-15T04:06:17.950Z,120
2016-06-15T04:07:17.968Z,120
2016-06-15T04:08:17.987Z,128
2016-06-15T04:09:18.006Z,132
2016-06-15T04:10:18.024Z,148
2016-06-15T04:11:18.059Z,168
2016-06-15T04:12:18.077Z,192
2016-06-15T04:13:18.111Z,224
2016-06-15T04:14:18.146Z,256
2016-06-15T04:15:18.165Z,288
2016-06-15T04:16:18.480Z,312
2016-06-15T04:17:18.062Z,328
2016-06-15T04:18:18.237Z,332
2016-06-15T04:19:18.271Z,324
2016-06-15T04:20:18.290Z,316
2016-06-15T04:21:18.715Z,296
2016-06-15T04:22:18.358Z,272
2016-06-15T04:23:18.361Z,252
2016-06-15T04:24:18.396Z,240
2016-06-15T04:25:18.414Z,236
2016-06-15T04:26:18.434Z,240
2016-06-15T04:27:18.467Z,248
2016-06-15T04:28:18.502Z,264
2016-06-15T04:29:18.521Z,272
2016-06-15T04:30:18.555Z,272
2016-06-15T04:31:18.605Z,272
2016-06-15T04:32:18.452Z,272
2016-06-15T04:33:18.627Z,280
2016-06-15T04:34:18.661Z,300
2016-06-15T04:35:18.679Z,320
2016-06-15T04:36:19.104Z,336
2016-06-15T04:37:18.732Z,352
2016-06-15T04:38:18.751Z,364
2016-06-15T04:39:18.770Z,380
2016-06-15T04:40:18.805Z,420
2016-06-15T04:41:18.838Z,480
2016-06-15T04:42:18.872Z,548
2016-06-15T04:43:18.875Z,584
2016-06-15T04:44:18.910Z,544
2016-06-15T04:45:18.928Z,476
2016-06-15T04:46:18.963Z,496
2016-06-15T04:47:18.981Z,620
2016-06-15T04:48:19.016Z,784
2016-06-15T04:49:18.879Z,892
2016-06-15T04:50:19.054Z,960
2016-06-15T04:51:19.432Z,1100
2016-06-15T04:52:19.106Z,1232
2016-06-15T04:53:19.141Z,1296
2016-06-15T04:54:19.159Z,1284
2016-06-15T04:55:19.178Z,1196
2016-06-15T04:56:19.212Z,1044
2016-06-15T04:57:19.247Z,928
2016-06-15T04:58:19.265Z,888
2016-06-15T04:59:19.300Z,864
2016-06-15T05:00:19.318Z,872
2016-06-15T05:01:19.338Z,872
2016-06-15T05:02:19.356Z,940
2016-06-15T05:03:19.234Z,1080
2016-06-15T05:04:19.440Z,1284
2016-06-15T05:05:19.443Z,1480
2016-06-15T05:06:19.696Z,1632
2016-06-15T05:07:19.496Z,1748
2016-06-15T05:08:19.516Z,1800
2016-06-15T05:09:19.549Z,1860
2016-06-15T05:10:19.569Z,1876
2016-06-15T05:11:19.602Z,1872
2016-06-15T05:12:19.622Z,1788
2016-06-15T05:13:19.656Z,1764
2016-06-15T05:14:19.674Z,1668
2016-06-15T05:15:19.693Z,1708
2016-06-15T05:16:19.727Z,1908
2016-06-15T05:17:19.746Z,2188
2016-06-15T05:18:19.640Z,2564
2016-06-15T05:19:19.815Z,3076
2016-06-15T05:20:19.833Z,11748
2016-06-15T05:21:19.931Z,4964
2016-06-15T05:22:19.902Z,4168
2016-06-15T05:23:19.921Z,3900
2016-06-15T05:24:19.939Z,5672
2016-06-15T05:25:19.958Z,4808
2016-06-15T05:26:19.992Z,6036
2016-06-15T05:27:20.027Z,11272
2016-06-15T05:28:20.030Z,5396
2016-06-15T05:29:20.064Z,4796
2016-06-15T05:30:19.942Z,5568
2016-06-15T05:31:20.117Z,4300
2016-06-15T05:32:20.151Z,4040
2016-06-15T05:33:20.029Z,3612
2016-06-15T05:34:20.189Z,3480
2016-06-15T05:35:20.255Z,3564
2016-06-15T05:36:20.273Z,4660
2016-06-15T05:37:20.276Z,4488
2016-06-15T05:38:20.310Z,4584
2016-06-15T05:39:20.313Z,4860
2016-06-15T05:40:20.363Z,5532
2016-06-15T05:41:20.382Z,7160
2016-06-15T05:42:20.401Z,5880
2016-06-15T05:43:20.450Z,4768
2016-06-15T05:44:20.454Z,3980
2016-06-15T05:45:20.488Z,4968
2016-06-15T05:46:20.539Z,2736
2016-06-15T05:47:20.525Z,2428
2016-06-15T05:48:20.561Z,2280
2016-06-15T05:49:20.578Z,2336
2016-06-15T05:50:20.613Z,2388
2016-06-15T05:51:21.069Z,2104
2016-06-15T05:52:20.666Z,2180
2016-06-15T05:53:20.684Z,2128
2016-06-15T05:54:20.719Z,1904
2016-06-15T05:55:20.737Z,1960
2016-06-15T05:56:20.772Z,1908
2016-06-15T05:57:20.791Z,1900
2016-06-15T05:58:20.825Z,1972
2016-06-15T05:59:20.859Z,2012
2016-06-15T06:00:20.722Z,2020
2016-06-15T06:01:20.897Z,2252
2016-06-15T06:02:20.932Z,2384
2016-06-15T06:03:20.965Z,2480
2016-06-15T06:04:20.985Z,2428
2016-06-15T06:05:21.018Z,2260
2016-06-15T06:06:21.458Z,2192
2016-06-15T06:07:21.056Z,2192
2016-06-15T06:08:21.090Z,2160
2016-06-15T06:09:21.124Z,2152
2016-06-15T06:10:21.159Z,2160
2016-06-15T06:11:21.162Z,2056
2016-06-15T06:12:21.196Z,1972
2016-06-15T06:13:21.231Z,2100
2016-06-15T06:14:21.249Z,2312
2016-06-15T06:15:21.300Z,2488
2016-06-15T06:16:21.318Z,2812
2016-06-15T06:17:21.353Z,3176
2016-06-15T06:18:21.355Z,3492
2016-06-15T06:19:21.374Z,3544
2016-06-15T06:20:21.409Z,4820
2016-06-15T06:21:21.302Z,3440
2016-06-15T06:22:21.462Z,3180
2016-06-15T06:23:21.496Z,3152
2016-06-15T06:24:21.358Z,3344
2016-06-15T06:25:21.549Z,3396
2016-06-15T06:26:21.583Z,3204
2016-06-15T06:27:21.602Z,3056
2016-06-15T06:28:21.620Z,2988
2016-06-15T06:29:21.640Z,2936
2016-06-15T06:30:21.673Z,2892
2016-06-15T06:31:21.708Z,2976
2016-06-15T06:32:21.757Z,2440
2016-06-15T06:33:21.761Z,2308
2016-06-15T06:34:21.780Z,2444
2016-06-15T06:35:21.814Z,2524
2016-06-15T06:36:21.848Z,2820
2016-06-15T06:37:21.710Z,2828
2016-06-15T06:38:21.886Z,2496
2016-06-15T06:39:21.920Z,2184
2016-06-15T06:40:21.938Z,1968
2016-06-15T06:41:21.973Z,1592
2016-06-15T06:42:21.991Z,1216
2016-06-15T06:43:22.026Z,1068
2016-06-15T06:44:26.904Z,1144
2016-06-15T06:45:22.079Z,1204
2016-06-15T06:46:22.113Z,1256
2016-06-15T06:47:22.132Z,1156
2016-06-15T06:48:22.166Z,1024
2016-06-15T06:49:22.185Z,840
2016-06-15T06:50:22.219Z,748
2016-06-15T06:51:23.301Z,676
2016-06-15T06:52:22.288Z,524
2016-06-15T06:53:22.291Z,488
2016-06-15T06:54:22.325Z,472
2016-06-15T06:55:22.345Z,576
2016-06-15T06:56:22.222Z,736
2016-06-15T06:57:22.554Z,832
2016-06-15T06:58:22.447Z,1132
2016-06-15T06:59:22.482Z,1324
2016-06-15T07:00:22.485Z,1496
2016-06-15T07:01:22.503Z,1768
2016-06-15T07:02:22.538Z,1976
2016-06-15T07:03:22.572Z,2336
2016-06-15T07:04:22.591Z,2336
2016-06-15T07:05:22.625Z,2168
2016-06-15T07:06:23.065Z,2440
2016-06-15T07:07:22.662Z,2620
2016-06-15T07:08:22.712Z,2344
2016-06-15T07:09:22.934Z,2036
2016-06-15T07:10:22.749Z,1736
2016-06-15T07:11:22.784Z,1552
2016-06-15T07:12:22.865Z,1440
2016-06-15T07:13:22.681Z,1660
2016-06-15T07:14:22.855Z,2376
2016-06-15T07:15:22.875Z,6040
2016-06-15T07:16:22.940Z,5784
2016-06-15T07:17:22.943Z,8820
2016-06-15T07:18:22.962Z,6044
2016-06-15T07:19:22.996Z,7820
2016-06-15T07:20:23.015Z,7908
2016-06-15T07:21:23.784Z,11180
2016-06-15T07:22:23.099Z,15952
2016-06-15T07:23:23.133Z,29120
2016-06-15T07:24:23.136Z,30624
2016-06-15T07:25:23.171Z,13248
2016-06-15T07:26:23.189Z,10676
2016-06-15T07:27:23.208Z,29888
2016-06-15T07:28:23.243Z,28960
2016-06-15T07:29:23.261Z,10212
2016-06-15T07:30:23.296Z,7216
2016-06-15T07:31:23.330Z,4924
2016-06-15T07:32:23.348Z,26272
2016-06-15T07:33:23.367Z,9696
2016-06-15T07:34:23.417Z,23424
2016-06-15T07:35:23.436Z,5620
2016-06-15T07:36:24.376Z,6240
2016-06-15T07:37:23.707Z,5120
2016-06-15T07:38:23.507Z,3760
2016-06-15T07:39:23.541Z,3420
2016-06-15T07:40:23.608Z,12588
2016-06-15T07:41:23.642Z,7572
2016-06-15T07:42:23.628Z,5908
2016-06-15T07:43:23.695Z,5644
2016-06-15T07:44:23.714Z,4688
2016-06-15T07:45:23.717Z,4488
2016-06-15T07:46:23.751Z,4412
2016-06-15T07:47:23.769Z,4400
2016-06-15T07:48:23.804Z,6556
2016-06-15T07:49:23.838Z,6404
2016-06-15T07:50:23.857Z,12128
2016-06-15T07:51:25.141Z,13916
2016-06-15T07:52:23.942Z,23936
2016-06-15T07:53:23.944Z,24608
2016-06-15T07:54:23.978Z,24576
2016-06-15T07:55:23.998Z,23680
2016-06-15T07:56:24.032Z,7892
2016-06-15T07:57:24.066Z,13584
2016-06-15T07:58:24.084Z,7460
2016-06-15T07:59:24.135Z,22272
2016-06-15T08:00:24.169Z,17472
2016-06-15T08:01:24.187Z,4216
2016-06-15T08:02:27.581Z,3500
2016-06-15T08:03:24.225Z,2792
2016-06-15T08:04:24.290Z,2432
2016-06-15T08:05:24.293Z,2208
2016-06-15T08:06:24.766Z,2448
2016-06-15T08:07:25.174Z,2588
2016-06-15T08:08:24.381Z,2840
2016-06-15T08:09:24.416Z,2772
2016-06-15T08:10:24.433Z,2392
2016-06-15T08:11:24.484Z,2160
2016-06-15T08:12:24.486Z,2152
2016-06-15T08:13:24.521Z,1988
2016-06-15T08:14:24.399Z,1896
2016-06-15T08:15:24.605Z,1828
2016-06-15T08:16:24.609Z,1796
2016-06-15T08:17:24.658Z,1860
2016-06-15T08:18:24.677Z,1728
2016-06-15T08:19:24.555Z,1776
2016-06-15T08:20:24.574Z,1768
2016-06-15T08:21:24.453Z,1652
2016-06-15T08:22:30.689Z,1524
2016-06-15T08:23:24.677Z,1460
2016-06-15T08:24:24.696Z,1448
2016-06-15T08:25:24.871Z,1420
2016-06-15T08:26:24.889Z,1436
2016-06-15T08:27:24.986Z,1488
2016-06-15T08:28:24.974Z,1708
2016-06-15T08:29:24.836Z,2004
2016-06-15T08:30:24.886Z,11160
2016-06-15T08:31:24.733Z,10340
2016-06-15T08:32:25.080Z,7380
2016-06-15T08:33:25.082Z,5864
2016-06-15T08:34:25.133Z,4956
2016-06-15T08:35:25.167Z,4736
2016-06-15T08:36:25.217Z,4568
2016-06-15T08:37:25.564Z,4272
2016-06-15T08:38:25.238Z,3628
2016-06-15T08:39:25.304Z,3160
2016-06-15T08:40:25.292Z,3244
2016-06-15T08:41:25.326Z,3284
2016-06-15T08:42:25.360Z,3032
2016-06-15T08:43:25.379Z,2576
2016-06-15T08:44:25.429Z,2372
2016-06-15T08:45:25.448Z,2124
2016-06-15T08:46:25.482Z,1976
2016-06-15T08:47:25.345Z,2252
2016-06-15T08:48:25.535Z,2480
2016-06-15T08:49:25.413Z,2280
2016-06-15T08:50:25.604Z,2760
2016-06-15T08:51:25.825Z,3260
2016-06-15T08:52:25.798Z,3700
2016-06-15T08:53:25.675Z,4284
2016-06-15T08:54:25.725Z,4600
2016-06-15T08:55:25.728Z,4624
2016-06-15T08:56:25.763Z,4524
2016-06-15T08:57:25.781Z,4328
2016-06-15T08:58:25.816Z,4116
2016-06-15T08:59:25.553Z,3984
2016-06-15T09:00:30.962Z,3944
2016-06-15T09:01:30.841Z,4032
2016-06-15T09:02:25.938Z,4188
2016-06-15T09:03:25.957Z,4380
2016-06-15T09:04:25.991Z,4636
2016-06-15T09:05:26.025Z,4920
2016-06-15T09:06:26.091Z,5016
2016-06-15T09:07:26.531Z,5056
2016-06-15T09:08:26.113Z,5088
2016-06-15T09:09:26.131Z,5080
2016-06-15T09:10:26.181Z,5120
2016-06-15T09:11:26.200Z,5160
2016-06-15T09:12:26.062Z,5304
2016-06-15T09:13:37.671Z,5548
2016-06-15T09:14:26.263Z,5632
2016-06-15T09:15:26.295Z,5600
2016-06-15T09:16:26.377Z,5588
2016-06-15T09:17:26.427Z,5476
2016-06-15T09:18:26.400Z,5316
2016-06-15T09:19:26.433Z,5084
2016-06-15T09:20:26.452Z,4836
2016-06-15T09:21:26.487Z,4668
2016-06-15T09:22:26.380Z,4556
2016-06-15T09:23:26.540Z,4444
2016-06-15T09:24:26.401Z,4284
2016-06-15T09:25:26.593Z,4108
2016-06-15T09:26:26.610Z,3960
2016-06-15T09:27:26.646Z,3852
2016-06-15T09:28:26.680Z,3796
2016-06-15T09:29:26.740Z,3844
2016-06-15T09:30:26.586Z,3984
2016-06-15T09:31:26.761Z,4132
2016-06-15T09:32:26.797Z,4228
2016-06-15T09:33:26.675Z,4280
2016-06-15T09:34:26.880Z,4340
2016-06-15T09:35:26.899Z,4456
2016-06-15T09:36:26.918Z,4696
2016-06-15T09:37:26.951Z,5084
2016-06-15T09:38:26.970Z,5288
2016-06-15T09:39:26.848Z,5536
2016-06-15T09:40:27.024Z,5692
2016-06-15T09:41:27.058Z,5876
2016-06-15T09:42:27.108Z,6036
2016-06-15T09:43:27.126Z,5532
2016-06-15T09:44:27.145Z,5060
2016-06-15T09:45:27.180Z,4612
2016-06-15T09:46:27.198Z,4336
2016-06-15T09:47:27.248Z,4108
2016-06-15T09:48:26.985Z,4104
2016-06-15T09:49:27.145Z,4244
2016-06-15T09:50:27.366Z,4248
2016-06-15T09:51:27.355Z,4048
2016-06-15T09:52:30.592Z,3740
2016-06-15T09:53:27.282Z,3624
2016-06-15T09:54:27.441Z,3492
2016-06-15T09:55:27.476Z,3444
2016-06-15T09:56:27.495Z,3352
2016-06-15T09:57:27.513Z,3296
2016-06-15T09:58:27.547Z,3288
2016-06-15T09:59:27.583Z,3344
2016-06-15T10:00:27.616Z,3500
2016-06-15T10:01:27.650Z,3672
2016-06-15T10:02:27.669Z,3860
2016-06-15T10:03:27.703Z,3916
2016-06-15T10:04:27.600Z,3904
2016-06-15T10:05:27.815Z,3856
2016-06-15T10:06:27.905Z,3628
2016-06-15T10:07:27.808Z,3464
2016-06-15T10:08:28.022Z,3676
2016-06-15T10:09:28.084Z,3972
2016-06-15T10:10:28.118Z,4040
2016-06-15T10:11:28.165Z,3848
2016-06-15T10:12:28.214Z,3640
2016-06-15T10:13:28.264Z,3476
2016-06-15T10:14:27.980Z,3376
2016-06-15T10:15:28.332Z,3320
2016-06-15T10:16:34.761Z,3268
2016-06-15T10:17:28.395Z,3228
2016-06-15T10:18:28.763Z,3180
2016-06-15T10:19:28.473Z,3132
2016-06-15T10:20:28.509Z,3104
2016-06-15T10:21:28.530Z,3100
2016-06-15T10:22:29.160Z,3104
2016-06-15T10:23:28.602Z,3088
2016-06-15T10:24:28.622Z,3112
2016-06-15T10:25:28.657Z,3176
2016-06-15T10:26:28.708Z,3240
2016-06-15T10:27:28.710Z,3368
2016-06-15T10:28:28.730Z,3392
2016-06-15T10:29:28.781Z,3452
2016-06-15T10:30:28.799Z,3488
2016-06-15T10:31:28.849Z,3524
2016-06-15T10:32:28.869Z,3564
2016-06-15T10:33:28.887Z,3580
2016-06-15T10:34:28.923Z,3520
2016-06-15T10:35:30.941Z,3452
2016-06-15T10:36:36.179Z,3456
2016-06-15T10:37:49.542Z,3464
2016-06-15T10:38:49.419Z,3088
2016-06-15T10:39:36.109Z,3072
2016-06-15T10:40:57.145Z,2976
2016-06-15T10:42:06.463Z,2876
2016-06-15T10:43:07.232Z,2856
2016-06-15T10:43:52.497Z,2940
2016-06-15T10:44:52.547Z,3016
2016-06-15T10:46:22.195Z,3084
2016-06-15T10:47:30.275Z,3148
2016-06-15T10:48:37.762Z,3332
2016-06-15T10:49:26.610Z,3476
2016-06-15T10:50:35.988Z,3600
2016-06-15T10:51:46.288Z,3520
2016-06-15T10:53:00.947Z,3392
2016-06-15T10:54:47.860Z,3312
2016-06-15T10:55:57.269Z,3512
2016-06-15T10:56:57.287Z,4096
2016-06-15T10:57:57.306Z,4472
2016-06-15T10:58:57.325Z,4348
2016-06-15T10:59:57.376Z,4684
2016-06-15T11:00:57.379Z,4724
2016-06-15T11:01:57.413Z,4640
2016-06-15T11:02:57.447Z,4416
2016-06-15T11:03:57.481Z,4152
2016-06-15T11:04:57.500Z,3784
2016-06-15T11:05:57.581Z,3508
2016-06-15T11:06:57.413Z,3308
2016-06-15T11:07:57.806Z,3112
2016-06-15T11:08:57.621Z,2928
2016-06-15T11:09:57.657Z,2712
2016-06-15T11:10:57.690Z,2540
2016-06-15T11:11:57.569Z,2400
2016-06-15T11:12:57.744Z,2268
2016-06-15T11:13:57.622Z,2152
2016-06-15T11:14:57.796Z,2076
2016-06-15T11:15:57.831Z,1940
2016-06-15T11:16:57.912Z,1844
2016-06-15T11:17:57.899Z,1852
2016-06-15T11:18:57.919Z,1936
2016-06-15T11:19:57.952Z,1988
2016-06-15T11:20:57.972Z,1988
2016-06-15T11:21:58.084Z,1912
2016-06-15T11:22:58.149Z,1784
2016-06-15T11:23:58.058Z,1640
2016-06-15T11:24:58.093Z,1500
2016-06-15T11:25:58.111Z,1368
2016-06-15T11:26:58.146Z,1276
2016-06-15T11:27:58.180Z,1236
2016-06-15T11:28:58.214Z,1244
2016-06-15T11:29:58.233Z,1304
2016-06-15T11:30:58.252Z,1396
2016-06-15T11:31:58.286Z,1512
2016-06-15T11:32:58.305Z,1624
2016-06-15T11:33:58.339Z,1740
2016-06-15T11:34:58.389Z,1824
2016-06-15T11:35:58.424Z,1872
2016-06-15T11:36:59.818Z,1800
2016-06-15T11:37:58.757Z,1644
2016-06-15T11:38:58.526Z,1548
2016-06-15T11:39:58.529Z,1524
2016-06-15T11:40:58.547Z,1504
2016-06-15T11:41:58.567Z,1480
2016-06-15T11:42:58.492Z,1480
2016-06-15T11:43:58.636Z,1468
2016-06-15T11:44:58.654Z,1420
2016-06-15T11:45:58.673Z,1356
2016-06-15T11:46:58.708Z,1304
2016-06-15T11:47:58.741Z,1252
2016-06-15T11:48:58.791Z,1164
2016-06-15T11:49:58.795Z,1024
2016-06-15T11:50:58.828Z,868
2016-06-15T11:51:58.848Z,708
2016-06-15T11:52:58.882Z,580
2016-06-15T11:53:58.917Z,524
2016-06-15T11:54:58.935Z,524
2016-06-15T11:55:58.984Z,540
2016-06-15T11:56:58.988Z,560
2016-06-15T11:57:59.038Z,584
2016-06-15T11:58:59.057Z,624
2016-06-15T11:59:59.123Z,680
2016-06-15T12:00:59.109Z,744
2016-06-15T12:01:59.129Z,828
2016-06-15T12:02:59.163Z,916
2016-06-15T12:03:59.182Z,1012
2016-06-15T12:04:59.232Z,1116
2016-06-15T12:05:59.265Z,1212
2016-06-15T12:06:59.160Z,1280
2016-06-15T12:08:00.380Z,1368
2016-06-15T12:08:59.353Z,1440
2016-06-15T12:09:59.356Z,1496
2016-06-15T12:10:59.375Z,1544
2016-06-15T12:11:59.800Z,1564
2016-06-15T12:12:59.459Z,1604
2016-06-15T12:13:59.509Z,1648
2016-06-15T12:14:59.497Z,1696
2016-06-15T12:15:59.516Z,1748
2016-06-15T12:16:59.627Z,1804
2016-06-15T12:17:59.427Z,1884
2016-06-15T12:18:59.650Z,1980
2016-06-15T12:19:59.653Z,2068
2016-06-15T12:20:59.656Z,2136
2016-06-15T12:21:59.690Z,2260
2016-06-15T12:23:00.286Z,2368
2016-06-15T12:23:59.743Z,2420
2016-06-15T12:24:59.777Z,2436
2016-06-15T12:25:59.655Z,2436
2016-06-15T12:26:59.674Z,2420
2016-06-15T12:27:59.849Z,2408
2016-06-15T12:28:59.867Z,2408
2016-06-15T12:29:59.934Z,2452
2016-06-15T12:30:59.937Z,2564
2016-06-15T12:31:59.971Z,2748
2016-06-15T12:32:59.832Z,2972
2016-06-15T12:34:00.023Z,3176
2016-06-15T12:35:00.089Z,3312
2016-06-15T12:36:00.061Z,3368
2016-06-15T12:37:00.094Z,3372
2016-06-15T12:38:01.958Z,3360
2016-06-15T12:39:00.164Z,3356
2016-06-15T12:40:00.245Z,3328
2016-06-15T12:41:00.218Z,3292
2016-06-15T12:42:00.298Z,3248
2016-06-15T12:43:00.270Z,3208
2016-06-15T12:44:00.304Z,3192
2016-06-15T12:45:00.324Z,3224
2016-06-15T12:46:00.358Z,3224
2016-06-15T12:47:00.392Z,3272
2016-06-15T12:48:00.426Z,3344
2016-06-15T12:49:00.444Z,3472
2016-06-15T12:50:00.339Z,3724
2016-06-15T12:51:00.482Z,4356
2016-06-15T12:52:00.516Z,4388
2016-06-15T12:53:00.551Z,4608
2016-06-15T12:54:00.585Z,4732
2016-06-15T12:55:00.605Z,4736
2016-06-15T12:56:00.653Z,4688
2016-06-15T12:57:00.656Z,4664
2016-06-15T12:58:00.534Z,4652
2016-06-15T12:59:00.710Z,4640
2016-06-15T13:00:01.307Z,4648
2016-06-15T13:01:00.779Z,4612
2016-06-15T13:02:00.860Z,4532
2016-06-15T13:03:00.832Z,4408
2016-06-15T13:04:00.866Z,4232
2016-06-15T13:05:00.900Z,4052
2016-06-15T13:06:00.966Z,3920
2016-06-15T13:07:00.953Z,3888
2016-06-15T13:08:01.581Z,3944
2016-06-15T13:09:00.990Z,3976
2016-06-15T13:10:01.041Z,3944
2016-06-15T13:11:01.059Z,3792
2016-06-15T13:12:01.093Z,3656
2016-06-15T13:13:01.144Z,3524
2016-06-15T13:14:01.005Z,3424
2016-06-15T13:15:01.197Z,3352
2016-06-15T13:16:01.200Z,3272
2016-06-15T13:17:01.250Z,3196
2016-06-15T13:18:01.253Z,3104
2016-06-15T13:19:01.287Z,3016
2016-06-15T13:20:01.306Z,2944
2016-06-15T13:21:01.356Z,2904
2016-06-15T13:22:01.374Z,2904
2016-06-15T13:23:01.268Z,2956
2016-06-15T13:24:01.428Z,3052
2016-06-15T13:25:01.477Z,3168
2016-06-15T13:26:01.481Z,3312
2016-06-15T13:27:01.499Z,3608
2016-06-15T13:28:01.534Z,3660
2016-06-15T13:29:01.583Z,3772
2016-06-15T13:30:01.618Z,3864
2016-06-15T13:31:01.636Z,4008
2016-06-15T13:32:01.499Z,4132
2016-06-15T13:33:01.674Z,4228
2016-06-15T13:34:01.708Z,4296
2016-06-15T13:35:01.743Z,4300
2016-06-15T13:36:01.605Z,4336
2016-06-15T13:37:01.780Z,4344
2016-06-15T13:38:02.205Z,4204
2016-06-15T13:39:01.849Z,4132
2016-06-15T13:40:01.882Z,4052
2016-06-15T13:41:01.917Z,3876
2016-06-15T13:42:01.952Z,3756
2016-06-15T13:43:01.970Z,3736
2016-06-15T13:44:01.989Z,3852
2016-06-15T13:45:02.024Z,4228